createdAt,value
2023-03-18T00:01:22.921Z,96787.47
2023-03-18T00:03:25.477Z,96790.41
2023-03-18T00:05:28.659Z,96783.59
2023-03-18T00:07:31.554Z,96782.25
2023-03-18T00:09:34.152Z,96789.28
2023-03-18T00:11:37.566Z,96785.44
2023-03-18T00:13:41.481Z,96787.06
2023-03-18T00:15:45.419Z,96785.50
2023-03-18T00:17:48.939Z,96783.81
2023-03-18T00:19:51.497Z,96785.84
2023-03-18T00:21:54.171Z,96784.88
2023-03-18T00:23:56.909Z,96777.94
2023-03-18T00:26:01.338Z,96785.19
2023-03-18T00:28:04.451Z,96783.81
2023-03-18T00:30:08.921Z,96785.97
2023-03-18T00:32:12.847Z,96787.00
2023-03-18T00:34:16.015Z,96793.41
2023-03-18T00:36:25.498Z,96799.25
2023-03-18T00:38:29.529Z,96799.31
2023-03-18T00:40:43.261Z,96799.53
2023-03-18T00:42:50.436Z,96796.28
2023-03-18T00:44:53.470Z,96802.78
2023-03-18T00:46:56.047Z,96800.53
2023-03-18T00:49:02.081Z,96810.53
2023-03-18T00:51:04.967Z,96810.31
2023-03-18T00:53:07.512Z,96812.44
2023-03-18T00:55:11.051Z,96817.72
2023-03-18T00:57:13.651Z,96807.31
2023-03-18T00:59:16.387Z,96808.56
2023-03-18T01:01:19.725Z,96810.25
2023-03-18T01:03:25.804Z,96810.72
2023-03-18T01:05:30.353Z,96812.50
2023-03-18T01:07:33.035Z,96813.78
2023-03-18T01:09:35.790Z,96814.25
2023-03-18T01:11:38.430Z,96810.91
2023-03-18T01:13:41.443Z,96813.44
2023-03-18T01:15:44.068Z,96815.50
2023-03-18T01:17:47.074Z,96816.94
2023-03-18T01:19:49.878Z,96813.53
2023-03-18T01:21:53.868Z,96814.59
2023-03-18T01:23:56.595Z,96812.78
2023-03-18T01:25:59.988Z,96810.53
2023-03-18T01:28:02.564Z,96819.25
2023-03-18T01:30:06.885Z,96816.47
2023-03-18T01:32:09.760Z,96814.13
2023-03-18T01:34:12.361Z,96814.41
2023-03-18T01:36:15.571Z,96815.25
2023-03-18T01:38:19.553Z,96811.09
2023-03-18T01:40:22.675Z,96806.94
2023-03-18T01:42:25.502Z,96811.44
2023-03-18T01:44:28.462Z,96805.75
2023-03-18T01:46:37.839Z,96801.88
2023-03-18T01:48:40.743Z,96801.78
2023-03-18T01:50:45.233Z,96797.22
2023-03-18T01:52:50.050Z,96797.56
2023-03-18T01:54:59.583Z,96792.50
2023-03-18T01:57:03.637Z,96793.50
2023-03-18T01:59:08.940Z,96804.88
2023-03-18T02:01:19.140Z,96805.31
2023-03-18T02:03:22.695Z,96796.28
2023-03-18T02:05:28.474Z,96805.38
2023-03-18T02:07:34.719Z,96801.56
2023-03-18T02:09:37.701Z,96802.66
2023-03-18T02:11:44.740Z,96798.47
2023-03-18T02:13:48.199Z,96801.94
2023-03-18T02:15:55.088Z,96799.03
2023-03-18T02:18:01.657Z,96802.28
2023-03-18T02:20:16.069Z,96808.75
2023-03-18T02:22:26.984Z,96806.72
2023-03-18T02:24:37.876Z,96813.50
2023-03-18T02:26:50.033Z,96820.81
2023-03-18T02:28:58.132Z,96819.25
2023-03-18T02:31:05.175Z,96818.25
2023-03-18T02:33:08.967Z,96818.47
2023-03-18T02:35:12.869Z,96819.69
2023-03-18T02:37:15.487Z,96824.19
2023-03-18T02:39:18.165Z,96819.91
2023-03-18T02:41:22.942Z,96812.75
2023-03-18T02:43:28.625Z,96820.22
2023-03-18T02:45:41.699Z,96811.59
2023-03-18T02:47:47.831Z,96820.03
2023-03-18T02:49:50.733Z,96813.28
2023-03-18T02:51:53.927Z,96819.47
2023-03-18T02:54:01.701Z,96820.88
2023-03-18T02:56:04.553Z,96819.59
2023-03-18T02:58:07.858Z,96819.06
2023-03-18T03:00:11.813Z,96810.47
2023-03-18T03:02:15.800Z,96810.06
2023-03-18T03:04:19.592Z,96817.31
2023-03-18T03:06:22.213Z,96817.53
2023-03-18T03:08:25.482Z,96803.31
2023-03-18T03:10:28.055Z,96807.94
2023-03-18T03:12:30.714Z,96812.75
2023-03-18T03:14:33.293Z,96831.50
2023-03-18T03:16:36.911Z,96834.19
2023-03-18T03:18:42.064Z,96816.88
2023-03-18T03:20:45.619Z,96807.97
2023-03-18T03:22:48.383Z,96816.22
2023-03-18T03:24:50.968Z,96820.00
2023-03-18T03:26:54.039Z,96832.31
2023-03-18T03:28:56.804Z,96835.84
2023-03-18T03:30:59.149Z,96826.19
2023-03-18T03:33:02.725Z,96830.03
2023-03-18T03:35:08.597Z,96829.69
2023-03-18T03:37:11.876Z,96830.28
2023-03-18T03:39:14.744Z,96841.03
2023-03-18T03:41:17.411Z,96842.41
2023-03-18T03:43:19.984Z,96839.09
2023-03-18T03:45:23.050Z,96843.09
2023-03-18T03:47:25.889Z,96838.97
2023-03-18T03:49:28.503Z,96838.88
2023-03-18T03:51:32.416Z,96847.16
2023-03-18T03:53:35.994Z,96832.81
2023-03-18T03:55:39.239Z,96834.72
2023-03-18T03:57:41.943Z,96837.31
2023-03-18T03:59:44.596Z,96836.44
2023-03-18T04:01:47.303Z,96840.69
2023-03-18T04:03:50.136Z,96846.88
2023-03-18T04:05:52.753Z,96837.19
2023-03-18T04:07:59.893Z,96836.09
2023-03-18T04:10:02.769Z,96840.84
2023-03-18T04:12:06.552Z,96836.66
2023-03-18T04:14:09.148Z,96833.06
2023-03-18T04:16:11.770Z,96828.78
2023-03-18T04:18:14.823Z,96835.13
2023-03-18T04:20:18.293Z,96839.63
2023-03-18T04:22:21.502Z,96835.94
2023-03-18T04:24:26.156Z,96836.50
2023-03-18T04:26:29.114Z,96836.56
2023-03-18T04:28:31.886Z,96832.25
2023-03-18T04:30:34.572Z,96835.03
2023-03-18T04:32:37.441Z,96834.91
2023-03-18T04:34:40.347Z,96840.53
2023-03-18T04:36:42.901Z,96835.59
2023-03-18T04:38:45.625Z,96838.81
2023-03-18T04:40:49.522Z,96849.56
2023-03-18T04:42:52.367Z,96844.50
2023-03-18T04:44:54.935Z,96851.63
2023-03-18T04:46:57.597Z,96845.28
2023-03-18T04:49:00.303Z,96844.69
2023-03-18T04:51:02.889Z,96845.50
2023-03-18T04:53:06.448Z,96840.13
2023-03-18T04:55:10.633Z,96843.69
2023-03-18T04:57:17.047Z,96840.88
2023-03-18T04:59:19.690Z,96843.03
2023-03-18T05:01:22.296Z,96837.94
2023-03-18T05:03:25.282Z,96846.78
2023-03-18T05:05:27.903Z,96846.91
2023-03-18T05:07:30.623Z,96846.16
2023-03-18T05:09:34.200Z,96845.25
2023-03-18T05:11:37.092Z,96852.22
2023-03-18T05:13:41.002Z,96853.91
2023-03-18T05:15:43.543Z,96851.31
2023-03-18T05:17:46.392Z,96845.16
2023-03-18T05:19:49.949Z,96849.22
2023-03-18T05:21:52.620Z,96853.72
2023-03-18T05:23:55.219Z,96842.59
2023-03-18T05:25:58.221Z,96843.31
2023-03-18T05:28:01.150Z,96844.88
2023-03-18T05:30:05.904Z,96849.50
2023-03-18T05:32:09.598Z,96849.00
2023-03-18T05:34:13.481Z,96847.38
2023-03-18T05:36:16.036Z,96844.00
2023-03-18T05:38:18.625Z,96852.63
2023-03-18T05:40:21.536Z,96844.88
2023-03-18T05:42:24.275Z,96853.59
2023-03-18T05:44:26.949Z,96850.19
2023-03-18T05:46:31.002Z,96857.19
2023-03-18T05:48:34.141Z,96856.47
2023-03-18T05:50:39.536Z,96849.63
2023-03-18T05:52:42.887Z,96853.22
2023-03-18T05:54:45.506Z,96852.94
2023-03-18T05:56:48.095Z,96850.19
2023-03-18T05:58:51.151Z,96851.34
2023-03-18T06:00:53.729Z,96850.63
2023-03-18T06:02:59.307Z,96852.66
2023-03-18T06:05:02.500Z,96846.72
2023-03-18T06:07:06.117Z,96852.75
2023-03-18T06:09:09.195Z,96858.78
2023-03-18T06:11:12.172Z,96852.66
2023-03-18T06:13:15.225Z,96863.00
2023-03-18T06:15:18.769Z,96862.06
2023-03-18T06:17:21.620Z,96859.41
2023-03-18T06:19:25.957Z,96856.88
2023-03-18T06:21:28.595Z,96863.81
2023-03-18T06:23:31.716Z,96866.34
2023-03-18T06:25:34.811Z,96867.28
2023-03-18T06:27:37.607Z,96864.00
2023-03-18T06:29:41.057Z,96867.81
2023-03-18T06:31:43.624Z,96869.66
2023-03-18T06:33:46.598Z,96882.72
2023-03-18T06:35:51.125Z,96880.06
2023-03-18T06:37:54.215Z,96880.81
2023-03-18T06:39:56.780Z,96884.16
2023-03-18T06:41:59.359Z,96879.69
2023-03-18T06:44:01.915Z,96882.13
2023-03-18T06:46:05.306Z,96876.75
2023-03-18T06:48:08.386Z,96886.88
2023-03-18T06:50:13.525Z,96884.19
2023-03-18T06:52:18.115Z,96884.00
2023-03-18T06:54:21.144Z,96885.53
2023-03-18T06:56:23.892Z,96882.75
2023-03-18T06:58:27.158Z,96884.28
2023-03-18T07:00:29.789Z,96886.81
2023-03-18T07:02:32.394Z,96883.22
2023-03-18T07:04:35.481Z,96890.91
2023-03-18T07:06:38.164Z,96895.06
2023-03-18T07:08:42.062Z,96890.50
2023-03-18T07:10:44.710Z,96887.78
2023-03-18T07:12:47.926Z,96890.13
2023-03-18T07:14:50.515Z,96887.38
2023-03-18T07:16:53.115Z,96886.25
2023-03-18T07:18:58.217Z,96887.75
2023-03-18T07:21:01.369Z,96886.66
2023-03-18T07:23:05.265Z,96885.50
2023-03-18T07:25:10.493Z,96889.63
2023-03-18T07:27:14.501Z,96889.44
2023-03-18T07:29:17.498Z,96879.69
2023-03-18T07:31:20.094Z,96891.63
2023-03-18T07:33:22.651Z,96892.22
2023-03-18T07:35:25.231Z,96886.00
2023-03-18T07:37:28.734Z,96888.38
2023-03-18T07:39:31.866Z,96895.97
2023-03-18T07:41:37.807Z,96899.97
2023-03-18T07:43:40.948Z,96895.41
2023-03-18T07:45:43.520Z,96897.63
2023-03-18T07:47:47.318Z,96901.63
2023-03-18T07:49:50.141Z,96906.63
2023-03-18T07:51:53.114Z,96902.81
2023-03-18T07:53:55.690Z,96903.25
2023-03-18T07:55:58.390Z,96905.84
2023-03-18T07:58:04.346Z,96905.78
2023-03-18T08:00:08.885Z,96898.81
2023-03-18T08:02:16.756Z,96904.84
2023-03-18T08:04:19.508Z,96907.41
2023-03-18T08:06:22.688Z,96909.09
2023-03-18T08:08:25.249Z,96908.19
2023-03-18T08:10:28.906Z,96896.84
2023-03-18T08:12:45.262Z,96906.19
2023-03-18T08:14:55.284Z,96907.03
2023-03-18T08:16:58.018Z,96904.34
2023-03-18T08:19:00.658Z,96908.59
2023-03-18T08:21:03.227Z,96904.09
2023-03-18T08:23:05.834Z,96907.53
2023-03-18T08:25:09.343Z,96905.66
2023-03-18T08:27:12.162Z,96904.69
2023-03-18T08:29:14.795Z,96908.06
2023-03-18T08:31:18.776Z,96909.91
2023-03-18T08:33:21.360Z,96910.97
2023-03-18T08:35:23.944Z,96909.22
2023-03-18T08:37:26.552Z,96901.31
2023-03-18T08:39:29.110Z,96902.03
2023-03-18T08:41:32.439Z,96901.91
2023-03-18T08:43:36.381Z,96895.69
2023-03-18T08:45:40.530Z,96900.75
2023-03-18T08:47:44.473Z,96908.41
2023-03-18T08:49:47.134Z,96903.88
2023-03-18T08:51:49.701Z,96897.66
2023-03-18T08:53:52.467Z,96898.38
2023-03-18T08:55:55.037Z,96900.91
2023-03-18T08:57:57.906Z,96899.38
2023-03-18T09:00:00.513Z,96895.13
2023-03-18T09:02:03.422Z,96892.44
2023-03-18T09:04:07.391Z,96890.53
2023-03-18T09:06:10.025Z,96899.91
2023-03-18T09:08:13.579Z,96888.59
2023-03-18T09:10:17.750Z,96892.13
2023-03-18T09:12:20.352Z,96888.59
2023-03-18T09:14:23.556Z,96885.94
2023-03-18T09:16:26.274Z,96879.28
2023-03-18T09:18:29.504Z,96879.28
2023-03-18T09:20:33.765Z,96874.75
2023-03-18T09:22:36.876Z,96878.75
2023-03-18T09:24:39.482Z,96876.44
2023-03-18T09:26:42.237Z,96875.72
2023-03-18T09:28:44.828Z,96873.09
2023-03-18T09:30:47.619Z,96882.38
2023-03-18T09:32:50.580Z,96871.53
2023-03-18T09:34:55.763Z,96875.22
2023-03-18T09:36:59.671Z,96872.31
2023-03-18T09:39:02.232Z,96865.53
2023-03-18T09:41:13.753Z,96868.31
2023-03-18T09:43:32.232Z,96875.31
2023-03-18T09:45:41.127Z,96876.78
2023-03-18T09:47:57.338Z,96871.59
2023-03-18T09:50:11.513Z,96877.38
2023-03-18T09:52:27.165Z,96865.13
2023-03-18T09:54:36.477Z,96863.66
2023-03-18T09:56:40.135Z,96867.50
2023-03-18T09:58:50.849Z,96862.69
2023-03-18T10:00:58.015Z,96856.75
2023-03-18T10:03:06.499Z,96849.81
2023-03-18T10:05:15.909Z,96851.97
2023-03-18T10:07:23.704Z,96849.34
2023-03-18T10:09:31.911Z,96852.06
2023-03-18T10:11:38.460Z,96846.81
2023-03-18T10:13:48.194Z,96850.19
2023-03-18T10:15:56.617Z,96842.19
2023-03-18T10:18:06.055Z,96845.78
2023-03-18T10:20:17.787Z,96846.16
2023-03-18T10:22:47.138Z,96849.16
2023-03-18T10:24:59.917Z,96849.50
2023-03-18T10:27:10.487Z,96852.63
2023-03-18T10:29:37.281Z,96847.78
2023-03-18T10:31:52.475Z,96852.22
2023-03-18T10:33:59.343Z,96840.97
2023-03-18T10:36:08.849Z,96845.53
2023-03-18T10:38:20.591Z,96842.31
2023-03-18T10:40:25.943Z,96848.66
2023-03-18T10:42:31.209Z,96840.13
2023-03-18T10:44:36.826Z,96837.84
2023-03-18T10:46:39.635Z,96831.31
2023-03-18T10:48:46.616Z,96833.94
2023-03-18T10:51:07.765Z,96833.03
2023-03-18T10:53:18.213Z,96832.63
2023-03-18T10:55:27.400Z,96832.53
2023-03-18T10:57:30.127Z,96828.69
2023-03-18T10:59:33.482Z,96828.19
2023-03-18T11:01:38.072Z,96829.13
2023-03-18T11:03:45.204Z,96832.50
2023-03-18T11:05:48.887Z,96830.03
2023-03-18T11:08:00.694Z,96831.88
2023-03-18T11:10:15.127Z,96823.81
2023-03-18T11:12:23.771Z,96820.50
2023-03-18T11:14:30.557Z,96825.72
2023-03-18T11:16:38.189Z,96819.22
2023-03-18T11:18:47.160Z,96812.47
2023-03-18T11:21:00.524Z,96815.75
2023-03-18T11:23:13.637Z,96815.47
2023-03-18T11:25:18.003Z,96808.56
2023-03-18T11:27:27.821Z,96802.56
2023-03-18T11:29:33.434Z,96799.72
2023-03-18T11:31:50.582Z,96799.59
2023-03-18T11:33:58.840Z,96792.34
2023-03-18T11:36:07.402Z,96801.03
2023-03-18T11:38:16.910Z,96792.91
2023-03-18T11:40:28.069Z,96792.84
2023-03-18T11:42:33.378Z,96792.75
2023-03-18T11:44:35.936Z,96785.72
2023-03-18T11:46:42.728Z,96785.63
2023-03-18T11:48:45.458Z,96782.34
2023-03-18T11:51:20.861Z,96786.28
2023-03-18T11:53:31.251Z,96766.41
2023-03-18T11:55:43.515Z,96778.97
2023-03-18T11:58:22.852Z,96768.56
2023-03-18T12:00:33.946Z,96768.91
2023-03-18T12:02:54.142Z,96767.72
2023-03-18T12:05:10.892Z,96759.66
2023-03-18T12:07:41.467Z,96756.38
2023-03-18T12:09:50.448Z,96758.88
2023-03-18T12:12:06.801Z,96762.47
2023-03-18T12:14:19.587Z,96754.56
2023-03-18T12:16:40.501Z,96754.38
2023-03-18T12:18:58.719Z,96748.97
2023-03-18T12:21:05.279Z,96750.00
2023-03-18T12:23:23.044Z,96752.25
2023-03-18T12:25:41.805Z,96741.19
2023-03-18T12:27:56.562Z,96734.81
2023-03-18T12:30:09.873Z,96734.81
2023-03-18T12:32:25.587Z,96736.00
2023-03-18T12:34:43.047Z,96732.66
2023-03-18T12:36:58.592Z,96730.28
2023-03-18T12:39:15.867Z,96723.78
2023-03-18T12:41:21.473Z,96731.75
2023-03-18T12:43:45.373Z,96722.50
2023-03-18T12:45:54.194Z,96726.50
2023-03-18T12:48:02.351Z,96733.13
2023-03-18T12:50:08.895Z,96718.31
2023-03-18T12:52:20.736Z,96720.34
2023-03-18T12:54:26.759Z,96717.09
2023-03-18T12:56:31.579Z,96712.63
2023-03-18T12:58:39.643Z,96713.25
2023-03-18T13:00:47.968Z,96708.19
2023-03-18T13:03:09.726Z,96714.03
2023-03-18T13:05:25.452Z,96711.44
2023-03-18T13:07:38.675Z,96708.50
2023-03-18T13:09:45.148Z,96713.72
2023-03-18T13:12:05.029Z,96706.97
2023-03-18T13:14:18.692Z,96699.59
2023-03-18T13:16:25.347Z,96703.72
2023-03-18T13:18:37.998Z,96706.19
2023-03-18T13:20:42.286Z,96699.38
2023-03-18T13:23:01.663Z,96699.88
2023-03-18T13:25:19.351Z,96701.31
2023-03-18T13:27:41.612Z,96696.16
2023-03-18T13:29:51.882Z,96693.84
2023-03-18T13:32:01.239Z,96702.91
2023-03-18T13:34:26.499Z,96703.78
2023-03-18T13:36:51.604Z,96691.66
2023-03-18T13:39:05.470Z,96701.97
2023-03-18T13:41:25.452Z,96699.00
2023-03-18T13:43:29.254Z,96702.63
2023-03-18T13:45:33.816Z,96695.53
2023-03-18T13:47:39.112Z,96700.13
2023-03-18T13:49:44.551Z,96687.06
2023-03-18T13:51:54.174Z,96690.25
2023-03-18T13:54:00.789Z,96686.41
2023-03-18T13:56:05.903Z,96688.63
2023-03-18T13:58:24.302Z,96689.22
2023-03-18T14:00:31.547Z,96693.75
2023-03-18T14:02:45.448Z,96685.75
2023-03-18T14:04:50.805Z,96686.44
2023-03-18T14:06:55.414Z,96686.84
2023-03-18T14:08:58.050Z,96684.31
2023-03-18T14:11:50.002Z,96687.28
2023-03-18T14:13:54.731Z,96683.13
2023-03-18T14:15:58.720Z,96683.25
2023-03-18T14:18:01.618Z,96687.22
2023-03-18T14:20:21.871Z,96690.44
2023-03-18T14:22:29.185Z,96687.44
2023-03-18T14:24:32.396Z,96679.50
2023-03-18T14:26:34.978Z,96680.56
2023-03-18T14:28:45.535Z,96684.00
2023-03-18T14:31:13.672Z,96679.09
2023-03-18T14:33:34.486Z,96680.84
2023-03-18T14:35:50.515Z,96678.91
2023-03-18T14:38:03.494Z,96673.19
2023-03-18T14:40:14.219Z,96676.81
2023-03-18T14:42:29.750Z,96670.97
2023-03-18T14:44:40.912Z,96664.03
2023-03-18T14:46:46.331Z,96670.03
2023-03-18T14:48:53.739Z,96669.03
2023-03-18T14:51:00.151Z,96669.63
2023-03-18T14:53:12.674Z,96666.41
2023-03-18T14:55:20.614Z,96669.97
2023-03-18T14:57:23.788Z,96663.03
2023-03-18T14:59:27.161Z,96663.88
2023-03-18T15:01:36.587Z,96665.28
2023-03-18T15:03:41.582Z,96661.56
2023-03-18T15:05:46.475Z,96657.59
2023-03-18T15:07:54.624Z,96655.31
2023-03-18T15:09:57.320Z,96652.06
2023-03-18T15:11:59.889Z,96656.63
2023-03-18T15:14:02.476Z,96655.75
2023-03-18T15:16:05.993Z,96654.72
2023-03-18T15:18:18.585Z,96650.84
2023-03-18T15:20:22.943Z,96645.38
2023-03-18T15:22:30.615Z,96651.13
2023-03-18T15:24:35.006Z,96654.38
2023-03-18T15:26:42.097Z,96653.28
2023-03-18T15:28:47.659Z,96652.84
2023-03-18T15:30:55.705Z,96656.31
2023-03-18T15:33:07.025Z,96654.88
2023-03-18T15:35:16.638Z,96658.56
2023-03-18T15:37:33.544Z,96656.91
2023-03-18T15:39:39.824Z,96659.03
2023-03-18T15:41:42.591Z,96655.69
2023-03-18T15:43:47.188Z,96655.31
2023-03-18T15:45:55.544Z,96648.59
2023-03-18T15:47:59.486Z,96648.81
2023-03-18T15:50:10.518Z,96652.88
2023-03-18T15:52:17.113Z,96662.19
2023-03-18T15:54:28.018Z,96659.91
2023-03-18T15:56:35.462Z,96661.81
2023-03-18T15:58:39.387Z,96663.09
2023-03-18T16:00:42.813Z,96661.63
2023-03-18T16:02:45.471Z,96659.31
2023-03-18T16:04:48.612Z,96662.44
2023-03-18T16:06:52.421Z,96656.53
2023-03-18T16:08:55.547Z,96667.53
2023-03-18T16:11:01.791Z,96662.44
2023-03-18T16:13:05.836Z,96666.59
2023-03-18T16:15:15.530Z,96669.44
2023-03-18T16:17:22.170Z,96667.31
2023-03-18T16:19:27.946Z,96669.44
2023-03-18T16:21:30.638Z,96668.91
2023-03-18T16:23:33.235Z,96673.56
2023-03-18T16:25:36.003Z,96677.25
2023-03-18T16:27:44.029Z,96671.50
2023-03-18T16:29:48.372Z,96679.63
2023-03-18T16:31:51.134Z,96685.22
2023-03-18T16:33:56.121Z,96679.22
2023-03-18T16:36:01.570Z,96685.69
2023-03-18T16:38:04.216Z,96686.72
2023-03-18T16:40:18.341Z,96688.75
2023-03-18T16:42:21.609Z,96688.97
2023-03-18T16:44:24.411Z,96698.09
2023-03-18T16:46:28.510Z,96696.63
2023-03-18T16:48:31.201Z,96699.88
2023-03-18T16:50:35.982Z,96700.72
2023-03-18T16:52:38.864Z,96705.78
2023-03-18T16:54:41.946Z,96707.13
2023-03-18T16:56:45.216Z,96711.53
2023-03-18T16:58:47.793Z,96711.88
2023-03-18T17:00:51.104Z,96716.53
2023-03-18T17:02:55.504Z,96714.63
2023-03-18T17:04:58.200Z,96709.16
2023-03-18T17:07:03.578Z,96719.81
2023-03-18T17:09:06.168Z,96721.78
2023-03-18T17:11:11.461Z,96721.06
2023-03-18T17:13:19.978Z,96730.75
2023-03-18T17:15:28.778Z,96734.47
2023-03-18T17:17:35.710Z,96736.06
2023-03-18T17:19:40.091Z,96730.94
2023-03-18T17:21:42.707Z,96739.34
2023-03-18T17:23:45.655Z,96739.38
2023-03-18T17:25:51.891Z,96748.81
2023-03-18T17:27:57.257Z,96741.38
2023-03-18T17:29:59.829Z,96743.16
2023-03-18T17:32:02.593Z,96748.06
2023-03-18T17:34:13.867Z,96747.34
2023-03-18T17:36:18.167Z,96748.38
2023-03-18T17:38:21.082Z,96754.81
2023-03-18T17:40:27.032Z,96752.28
2023-03-18T17:42:32.336Z,96758.56
2023-03-18T17:44:34.935Z,96754.56
2023-03-18T17:46:38.013Z,96756.38
2023-03-18T17:48:41.078Z,96755.31
2023-03-18T17:50:44.866Z,96764.38
2023-03-18T17:52:52.586Z,96768.88
2023-03-18T17:54:55.619Z,96765.78
2023-03-18T17:56:58.233Z,96768.53
2023-03-18T17:59:00.810Z,96766.22
2023-03-18T18:01:07.046Z,96776.19
2023-03-18T18:03:21.609Z,96777.34
2023-03-18T18:05:24.676Z,96775.13
2023-03-18T18:07:27.247Z,96771.75
2023-03-18T18:09:31.189Z,96778.28
2023-03-18T18:11:37.807Z,96789.88
2023-03-18T18:13:40.429Z,96776.94
2023-03-18T18:15:43.427Z,96773.97
2023-03-18T18:17:48.452Z,96778.50
2023-03-18T18:19:51.069Z,96781.50
2023-03-18T18:21:54.865Z,96784.41
2023-03-18T18:23:57.476Z,96786.19
2023-03-18T18:26:04.573Z,96786.69
2023-03-18T18:28:18.354Z,96784.09
2023-03-18T18:30:25.108Z,96783.81
2023-03-18T18:32:27.685Z,96789.47
2023-03-18T18:34:30.238Z,96784.44
2023-03-18T18:36:33.030Z,96791.50
2023-03-18T18:38:35.899Z,96788.41
2023-03-18T18:40:38.480Z,96785.41
2023-03-18T18:42:43.509Z,96796.13
2023-03-18T18:44:46.931Z,96796.69
2023-03-18T18:46:49.692Z,96792.28
2023-03-18T18:48:53.803Z,96807.00
2023-03-18T18:50:57.150Z,96798.84
2023-03-18T18:53:00.462Z,96796.50
2023-03-18T18:55:03.737Z,96803.63
2023-03-18T18:57:07.350Z,96802.69
2023-03-18T18:59:22.983Z,96802.88
2023-03-18T19:01:25.835Z,96813.16
2023-03-18T19:03:31.374Z,96808.13
2023-03-18T19:05:35.732Z,96806.53
2023-03-18T19:07:39.563Z,96803.31
2023-03-18T19:09:42.570Z,96805.28
2023-03-18T19:11:45.240Z,96806.91
2023-03-18T19:13:48.132Z,96809.31
2023-03-18T19:15:53.819Z,96815.41
2023-03-18T19:17:56.441Z,96819.88
2023-03-18T19:19:59.000Z,96819.63
2023-03-18T19:22:02.820Z,96819.50
2023-03-18T19:24:26.247Z,96824.94
2023-03-18T19:26:28.898Z,96815.84
2023-03-18T19:28:58.371Z,96827.81
2023-03-18T19:31:04.413Z,96833.00
2023-03-18T19:33:14.999Z,96830.38
2023-03-18T19:35:17.875Z,96828.38
2023-03-18T19:37:24.846Z,96835.53
2023-03-18T19:39:28.104Z,96829.78
2023-03-18T19:41:31.292Z,96830.53
2023-03-18T19:43:33.907Z,96826.88
2023-03-18T19:45:36.860Z,96829.34
2023-03-18T19:47:42.130Z,96826.72
2023-03-18T19:49:45.063Z,96819.13
2023-03-18T19:51:49.722Z,96819.13
2023-03-18T19:53:52.432Z,96833.38
2023-03-18T19:55:55.173Z,96830.38
2023-03-18T19:57:58.276Z,96830.47
2023-03-18T20:00:05.867Z,96831.03
2023-03-18T20:02:21.046Z,96833.66
2023-03-18T20:04:27.533Z,96832.34
2023-03-18T20:06:30.120Z,96840.44
2023-03-18T20:08:32.740Z,96839.59
2023-03-18T20:10:35.509Z,96840.38
2023-03-18T20:12:39.692Z,96841.00
2023-03-18T20:14:42.347Z,96845.28
2023-03-18T20:16:44.931Z,96840.38
2023-03-18T20:18:47.474Z,96842.31
2023-03-18T20:20:52.411Z,96839.16
2023-03-18T20:22:59.404Z,96839.13
2023-03-18T20:25:03.194Z,96840.59
2023-03-18T20:27:05.898Z,96845.84
2023-03-18T20:29:19.522Z,96846.50
2023-03-18T20:31:22.141Z,96840.88
2023-03-18T20:33:24.778Z,96844.16
2023-03-18T20:35:29.467Z,96846.50
2023-03-18T20:37:36.040Z,96841.28
2023-03-18T20:39:38.682Z,96854.56
2023-03-18T20:41:41.238Z,96844.56
2023-03-18T20:43:44.058Z,96848.47
2023-03-18T20:45:46.735Z,96850.50
2023-03-18T20:47:49.859Z,96852.34
2023-03-18T20:49:53.917Z,96852.13
2023-03-18T20:51:57.801Z,96855.13
2023-03-18T20:54:02.230Z,96857.25
2023-03-18T20:56:05.239Z,96857.84
2023-03-18T20:58:14.444Z,96857.69
2023-03-18T21:00:19.504Z,96852.63
2023-03-18T21:02:30.072Z,96859.81
2023-03-18T21:04:32.695Z,96853.47
2023-03-18T21:06:35.849Z,96851.00
2023-03-18T21:08:38.444Z,96854.22
2023-03-18T21:10:42.442Z,96855.81
2023-03-18T21:12:45.581Z,96857.69
2023-03-18T21:14:48.834Z,96858.53
2023-03-18T21:16:51.833Z,96861.16
2023-03-18T21:18:54.406Z,96857.19
2023-03-18T21:20:57.392Z,96868.34
2023-03-18T21:23:00.124Z,96868.06
2023-03-18T21:25:03.234Z,96862.16
2023-03-18T21:27:07.699Z,96859.88
2023-03-18T21:29:10.304Z,96861.81
2023-03-18T21:31:23.967Z,96859.22
2023-03-18T21:33:31.178Z,96861.47
2023-03-18T21:35:34.473Z,96865.22
2023-03-18T21:37:37.232Z,96871.44
2023-03-18T21:39:39.773Z,96868.81
2023-03-18T21:41:42.989Z,96871.53
2023-03-18T21:43:47.671Z,96861.06
2023-03-18T21:45:50.519Z,96872.38
2023-03-18T21:47:53.397Z,96874.22
2023-03-18T21:49:58.020Z,96877.09
2023-03-18T21:52:00.608Z,96871.34
2023-03-18T21:54:03.257Z,96878.59
2023-03-18T21:56:06.483Z,96877.00
2023-03-18T21:58:15.692Z,96879.69
2023-03-18T22:00:21.560Z,96877.16
2023-03-18T22:02:29.810Z,96878.00
2023-03-18T22:04:32.395Z,96870.06
2023-03-18T22:06:34.942Z,96873.13
2023-03-18T22:08:37.487Z,96865.06
2023-03-18T22:10:41.029Z,96867.94
2023-03-18T22:12:43.733Z,96874.47
2023-03-18T22:14:46.299Z,96869.72
2023-03-18T22:16:50.300Z,96868.03
2023-03-18T22:18:52.889Z,96861.78
2023-03-18T22:20:57.001Z,96866.00
2023-03-18T22:22:59.564Z,96864.78
2023-03-18T22:25:02.189Z,96872.25
2023-03-18T22:27:04.936Z,96882.09
2023-03-18T22:29:07.492Z,96880.25
2023-03-18T22:31:17.912Z,96878.97
2023-03-18T22:33:25.805Z,96881.66
2023-03-18T22:35:30.298Z,96884.53
2023-03-18T22:37:33.055Z,96877.47
2023-03-18T22:39:35.623Z,96881.91
2023-03-18T22:41:38.188Z,96884.53
2023-03-18T22:43:40.865Z,96878.38
2023-03-18T22:45:43.457Z,96884.00
2023-03-18T22:47:46.120Z,96885.53
2023-03-18T22:49:50.527Z,96882.28
2023-03-18T22:51:53.114Z,96886.53
2023-03-18T22:53:56.081Z,96883.66
2023-03-18T22:56:02.324Z,96882.28
2023-03-18T22:58:05.490Z,96898.97
2023-03-18T23:00:25.854Z,96890.06
2023-03-18T23:02:28.876Z,96894.59
2023-03-18T23:04:31.815Z,96898.97
2023-03-18T23:06:35.819Z,96891.13
2023-03-18T23:08:38.404Z,96893.66
2023-03-18T23:10:41.848Z,96889.91
2023-03-18T23:12:44.726Z,96893.44
2023-03-18T23:14:47.506Z,96890.44
2023-03-18T23:16:50.057Z,96897.66
2023-03-18T23:18:53.130Z,96899.66
2023-03-18T23:20:55.794Z,96901.41
2023-03-18T23:22:59.678Z,96894.50
2023-03-18T23:25:02.495Z,96901.41
2023-03-18T23:27:05.475Z,96900.72
2023-03-18T23:29:08.972Z,96902.63
2023-03-18T23:31:11.822Z,96902.53
2023-03-18T23:33:15.057Z,96900.78
2023-03-18T23:35:19.519Z,96900.63
2023-03-18T23:37:22.564Z,96902.03
2023-03-18T23:39:27.177Z,96911.50
2023-03-18T23:41:29.754Z,96900.63
2023-03-18T23:43:32.359Z,96909.09
2023-03-18T23:45:35.237Z,96904.09
2023-03-18T23:47:38.438Z,96912.16
2023-03-18T23:49:41.296Z,96913.91
2023-03-18T23:51:43.858Z,96904.78
2023-03-18T23:53:46.585Z,96909.09
2023-03-18T23:55:50.710Z,96912.78
2023-03-18T23:57:53.350Z,96915.34
2023-03-18T23:59:55.995Z,96918.16
